Time;durP1;ratioP1;P1;durP2;ratioP2;P2;SDS_P1;SDS_P2;PMS_P1;PMS_P2;Temp;Humidity;BMP_temperature;BMP_pressure;BME280_temperature;BME280_humidity;BME280_pressure;Samples;Min_cycle;Max_cycle;Signal;HPM_P1;HPM_P2
2023/11/01 00:00:44;;;;;;;17.10;12.38;;;;;;;13.39;73.07;98694.75;4974205;28;20059;-78
2023/11/01 00:03:12;;;;;;;16.00;11.75;;;;;;;13.40;73.01;98697.25;4973040;28;20050;-77
2023/11/01 00:05:39;;;;;;;15.10;12.13;;;;;;;13.41;73.10;98696.28;4974251;28;20055;-78
2023/11/01 00:08:06;;;;;;;15.93;11.95;;;;;;;13.42;73.00;98705.88;4973214;28;20057;-77
2023/11/01 00:10:33;;;;;;;16.83;12.52;;;;;;;13.44;73.03;98697.81;4974008;28;20639;-78
2023/11/01 00:12:59;;;;;;;14.93;12.18;;;;;;;13.43;73.05;98699.59;4974206;28;20113;-77
2023/11/01 00:15:26;;;;;;;14.80;11.30;;;;;;;13.44;73.22;98689.88;4973240;28;20462;-76
2023/11/01 00:17:53;;;;;;;15.43;11.50;;;;;;;13.44;73.35;98692.53;4974485;28;20090;-77
2023/11/01 00:20:19;;;;;;;14.48;11.60;;;;;;;13.45;73.44;98688.91;4974070;28;20046;-77
2023/11/01 00:22:46;;;;;;;14.30;10.90;;;;;;;13.46;73.56;98684.47;4974154;28;20054;-76
2023/11/01 00:25:13;;;;;;;13.95;10.40;;;;;;;13.47;73.52;98686.13;4974159;28;20063;-76
2023/11/01 00:27:39;;;;;;;13.25;11.40;;;;;;;13.48;73.57;98688.69;4973792;28;20447;-78
2023/11/01 00:30:07;;;;;;;15.00;11.40;;;;;;;13.50;73.58;98689.38;4973662;28;20487;-77
2023/11/01 00:32:33;;;;;;;15.00;11.85;;;;;;;13.52;73.55;98690.09;4974210;28;20164;-77
2023/11/01 00:35:01;;;;;;;19.80;12.32;;;;;;;13.54;73.64;98682.03;4974167;28;20042;-78
2023/11/01 00:37:28;;;;;;;15.27;12.20;;;;;;;13.54;73.80;98687.31;4973958;28;20112;-78
2023/11/01 00:39:54;;;;;;;13.32;11.65;;;;;;;13.55;73.62;98691.63;4972106;28;20054;-78
2023/11/01 00:42:22;;;;;;;12.13;9.82;;;;;;;13.57;73.68;98689.69;4973742;28;20046;-77
2023/11/01 00:44:48;;;;;;;13.38;11.27;;;;;;;13.60;73.84;98672.75;4973723;28;20563;-77
2023/11/01 00:47:15;;;;;;;15.48;11.05;;;;;;;13.61;73.76;98677.88;4973671;28;20450;-76
2023/11/01 00:49:42;;;;;;;13.90;11.57;;;;;;;13.64;73.71;98672.31;4973698;28;20138;-78
2023/11/01 00:52:09;;;;;;;17.75;12.95;;;;;;;13.67;73.76;98674.69;4973938;28;20063;-76
2023/11/01 00:54:35;;;;;;;17.98;14.15;;;;;;;13.69;73.73;98674.56;4972594;28;20051;-79
2023/11/01 00:57:02;;;;;;;18.67;14.80;;;;;;;13.71;73.87;98662.03;4973442;28;20051;-77
2023/11/01 00:59:28;;;;;;;18.58;14.85;;;;;;;13.74;73.81;98661.78;4973520;28;20101;-76
2023/11/01 01:01:55;;;;;;;17.02;13.80;;;;;;;13.78;73.92;98670.25;4973515;28;20097;-79
2023/11/01 01:04:22;;;;;;;18.65;14.65;;;;;;;13.78;73.87;98675.56;4973495;28;20054;-77
2023/11/01 01:06:48;;;;;;;19.20;13.77;;;;;;;13.80;73.58;98682.38;4973453;28;20065;-77
2023/11/01 01:09:15;;;;;;;14.43;12.90;;;;;;;13.81;73.34;98676.13;4973067;28;20050;-78
2023/11/01 01:11:42;;;;;;;14.15;10.65;;;;;;;13.81;73.59;98656.78;4973311;28;20051;-78
2023/11/01 01:14:08;;;;;;;12.73;10.73;;;;;;;13.81;73.66;98656.78;4973201;28;20051;-77
2023/11/01 01:16:36;;;;;;;14.98;10.02;;;;;;;13.81;73.40;98652.34;4973382;28;20053;-77
2023/11/01 01:19:03;;;;;;;11.80;9.60;;;;;;;13.81;73.38;98654.97;4972991;28;20059;-77
2023/11/01 01:21:30;;;;;;;13.35;9.85;;;;;;;13.83;73.63;98652.16;4973066;28;20077;-76
2023/11/01 01:23:57;;;;;;;18.25;9.60;;;;;;;13.83;73.57;98654.00;4971977;28;20054;-79
2023/11/01 01:26:24;;;;;;;11.25;8.55;;;;;;;13.82;73.58;98650.50;4972850;28;20047;-78
2023/11/01 01:28:50;;;;;;;16.05;9.18;;;;;;;13.84;73.51;98645.94;4973034;28;20047;-76
2023/11/01 01:31:17;;;;;;;13.75;9.38;;;;;;;13.85;73.58;98647.59;4972849;28;20491;-79
2023/11/01 01:33:44;;;;;;;13.07;9.07;;;;;;;13.85;73.54;98634.38;4971920;28;20046;-78
2023/11/01 01:36:11;;;;;;;14.48;9.68;;;;;;;13.87;73.62;98635.06;4972680;28;20050;-76
2023/11/01 01:38:38;;;;;;;13.40;10.27;;;;;;;13.87;73.56;98621.84;4972651;28;20113;-78
2023/11/01 01:41:05;;;;;;;16.33;11.15;;;;;;;13.88;73.71;98627.97;4971659;28;20471;-77
2023/11/01 01:43:32;;;;;;;14.30;10.27;;;;;;;13.89;73.69;98627.84;4972905;28;20147;-77
2023/11/01 01:46:08;;;;;;;13.35;11.38;;;;;;;13.87;73.91;98634.25;4972596;28;20085;-77
2023/11/01 01:48:37;;;;;;;18.33;11.98;;;;;;;13.88;73.44;98620.88;4972785;28;20541;-78
2023/11/01 01:51:05;;;;;;;19.10;12.75;;;;;;;13.90;73.40;98623.38;4971587;28;20518;-77
2023/11/01 01:53:44;;;;;;;18.20;12.85;;;;;;;13.85;74.00;98621.16;4972741;28;20058;-76
2023/11/01 01:56:12;;;;;;;16.95;13.50;;;;;;;13.88;73.55;98620.88;4972628;28;20089;-78
2023/11/01 01:58:41;;;;;;;21.80;13.43;;;;;;;13.88;73.90;98612.09;4971309;28;20058;-78
2023/11/01 02:01:09;;;;;;;17.75;13.57;;;;;;;13.87;73.78;98613.91;4972193;28;20055;-76
2023/11/01 02:03:36;;;;;;;19.20;12.77;;;;;;;13.87;73.80;98611.25;4972264;28;20475;-78
2023/11/01 02:06:05;;;;;;;17.17;12.65;;;;;;;13.87;74.05;98607.78;4972500;28;20077;-77
2023/11/01 02:08:32;;;;;;;19.00;12.68;;;;;;;13.88;74.08;98599.72;4970977;28;20455;-77
2023/11/01 02:10:59;;;;;;;15.23;13.18;;;;;;;13.89;74.15;98601.38;4971986;28;20057;-77
2023/11/01 02:13:25;;;;;;;17.98;13.18;;;;;;;13.90;74.19;98596.91;4972324;28;20058;-77
2023/11/01 02:15:52;;;;;;;18.60;13.20;;;;;;;13.91;74.00;98594.13;4970913;28;20066;-76
2023/11/01 02:18:19;;;;;;;19.77;13.68;;;;;;;13.92;74.16;98598.47;4970884;28;20435;-77
2023/11/01 02:20:47;;;;;;;16.42;12.90;;;;;;;13.94;74.16;98604.44;4972160;28;20097;-77
2023/11/01 02:23:15;;;;;;;22.35;14.30;;;;;;;13.95;74.25;98605.28;4971029;28;20070;-76
2023/11/01 02:25:43;;;;;;;18.70;13.23;;;;;;;13.96;74.06;98596.38;4971012;28;20492;-77
2023/11/01 02:28:11;;;;;;;19.17;13.00;;;;;;;13.98;74.14;98598.88;4970775;28;20054;-78
2023/11/01 02:30:39;;;;;;;17.50;12.77;;;;;;;13.99;74.27;98589.97;4971741;28;20063;-77
2023/11/01 02:33:06;;;;;;;18.27;13.02;;;;;;;13.99;74.03;98601.41;4972429;28;20082;-78
2023/11/01 02:35:33;;;;;;;16.13;11.95;;;;;;;14.00;73.93;98591.63;4972166;28;20089;-78
2023/11/01 02:38:01;;;;;;;16.30;11.18;;;;;;;14.01;73.87;98588.00;4970875;28;20102;-77
2023/11/01 02:40:27;;;;;;;17.58;11.27;;;;;;;13.99;73.95;98595.25;4971815;28;20059;-79
2023/11/01 02:42:56;;;;;;;20.13;11.65;;;;;;;14.00;74.13;98589.00;4971933;28;20090;-77
2023/11/01 02:45:23;;;;;;;17.27;11.27;;;;;;;13.99;74.00;98584.69;4971810;28;20109;-76
2023/11/01 02:47:50;;;;;;;18.25;10.43;;;;;;;14.00;73.90;98589.00;4970776;28;20046;-78
2023/11/01 02:50:19;;;;;;;16.00;10.73;;;;;;;13.98;73.87;98575.91;4971725;28;20063;-77
2023/11/01 02:52:47;;;;;;;17.42;10.90;;;;;;;13.98;73.72;98575.06;4972026;28;20054;-78
2023/11/01 02:55:16;;;;;;;13.27;9.75;;;;;;;13.94;73.95;98567.41;4971885;28;20483;-77
2023/11/01 02:57:43;;;;;;;17.95;10.55;;;;;;;13.96;73.86;98571.72;4971643;28;20050;-78
2023/11/01 03:00:20;;;;;;;18.05;9.73;;;;;;;13.93;73.98;98565.75;4970508;28;20058;-76
2023/11/01 03:02:53;;;;;;;15.05;9.05;;;;;;;13.92;74.06;98574.66;4973968;28;20054;-78
2023/11/01 03:05:21;;;;;;;17.95;9.35;;;;;;;13.94;73.96;98569.22;4975765;28;20130;-76
2023/11/01 03:07:48;;;;;;;16.70;9.60;;;;;;;13.93;74.04;98560.47;4975412;28;20540;-77
2023/11/01 03:10:14;;;;;;;16.65;9.35;;;;;;;13.94;74.11;98564.75;4975415;28;20106;-76
2023/11/01 03:12:41;;;;;;;20.20;10.15;;;;;;;13.93;74.02;98560.47;4976125;28;20491;-77
2023/11/01 03:15:09;;;;;;;19.83;9.88;;;;;;;13.96;73.98;98558.50;4975516;28;20054;-76
2023/11/01 03:17:35;;;;;;;18.15;9.85;;;;;;;13.96;73.94;98550.56;4975404;28;20121;-77
2023/11/01 03:20:05;;;;;;;15.73;10.15;;;;;;;13.95;73.97;98557.69;4975214;28;20057;-78
2023/11/01 03:22:32;;;;;;;13.50;9.25;;;;;;;13.96;73.95;98553.19;4974001;28;20089;-76
2023/11/01 03:24:59;;;;;;;15.57;9.45;;;;;;;13.94;74.00;98551.53;4974164;28;20113;-77
2023/11/01 03:27:26;;;;;;;14.05;9.02;;;;;;;13.93;74.00;98547.22;4975041;28;20086;-78
2023/11/01 03:29:53;;;;;;;14.40;9.38;;;;;;;13.96;73.95;98554.06;4974807;28;20402;-78
2023/11/01 03:32:22;;;;;;;17.80;9.00;;;;;;;13.93;74.08;98544.59;4974026;28;20411;-76
2023/11/01 03:34:48;;;;;;;14.23;8.27;;;;;;;13.94;73.82;98530.38;4975057;28;20053;-77
2023/11/01 03:37:15;;;;;;;16.42;8.27;;;;;;;13.93;73.99;98531.34;4974888;28;20090;-77
2023/11/01 03:39:41;;;;;;;16.38;7.85;;;;;;;13.94;73.96;98534.81;4974764;28;20093;-77
2023/11/01 03:42:08;;;;;;;15.23;8.52;;;;;;;13.93;74.05;98544.59;4973835;28;20153;-76
2023/11/01 03:44:35;;;;;;;12.30;7.63;;;;;;;13.93;74.11;98538.44;4975105;28;20059;-78
2023/11/01 03:47:02;;;;;;;15.18;7.88;;;;;;;13.93;74.17;98534.00;4974600;28;20201;-77
2023/11/01 03:49:29;;;;;;;16.65;7.68;;;;;;;13.93;73.84;98528.72;4974621;28;20050;-76
2023/11/01 03:52:01;;;;;;;16.00;7.63;;;;;;;13.91;74.20;98530.66;4974705;28;20098;-77
2023/11/01 03:54:29;;;;;;;11.45;7.20;;;;;;;13.93;73.94;98531.34;4973685;28;20113;-79
2023/11/01 03:56:55;;;;;;;17.05;8.00;;;;;;;13.92;74.38;98527.03;4973350;28;20063;-76
2023/11/01 03:59:22;;;;;;;12.43;7.40;;;;;;;13.93;73.87;98528.72;4974648;28;20055;-76
2023/11/01 04:01:49;;;;;;;11.27;6.63;;;;;;;13.92;73.74;98521.75;4974803;28;20062;-78
2023/11/01 04:04:16;;;;;;;12.77;6.95;;;;;;;13.92;73.83;98516.47;4974536;28;20061;-78
2023/11/01 04:06:43;;;;;;;10.75;6.63;;;;;;;13.91;73.78;98517.41;4974374;28;20482;-77
2023/11/01 04:09:10;;;;;;;14.73;5.90;;;;;;;13.91;73.50;98508.66;4974519;28;20057;-77
2023/11/01 04:11:37;;;;;;;12.52;6.68;;;;;;;13.90;73.62;98507.81;4974331;28;20147;-78
2023/11/01 04:14:03;;;;;;;12.77;6.65;;;;;;;13.89;73.67;98503.50;4973744;28;20051;-76
2023/11/01 04:16:31;;;;;;;12.05;6.28;;;;;;;13.89;73.71;98506.16;4973114;28;20105;-76
2023/11/01 04:18:58;;;;;;;9.68;5.65;;;;;;;13.88;73.72;98507.13;4974210;28;20050;-78
2023/11/01 04:21:24;;;;;;;10.25;5.57;;;;;;;13.87;73.77;98501.97;4973921;28;20062;-76
2023/11/01 04:23:52;;;;;;;12.85;5.90;;;;;;;13.87;73.77;98510.72;4974353;28;20121;-77
2023/11/01 04:26:19;;;;;;;9.48;5.50;;;;;;;13.87;73.80;98509.91;4974186;28;20058;-76
2023/11/01 04:28:46;;;;;;;10.52;5.15;;;;;;;13.87;73.83;98509.91;4974159;28;20059;-77
2023/11/01 04:31:15;;;;;;;8.70;5.07;;;;;;;13.86;73.75;98506.44;4972749;28;20051;-76
2023/11/01 04:33:42;;;;;;;9.10;5.30;;;;;;;13.87;73.71;98507.28;4974198;28;20058;-76
2023/11/01 04:36:09;;;;;;;10.45;5.15;;;;;;;13.86;73.56;98511.72;4974251;28;20051;-77
2023/11/01 04:38:37;;;;;;;10.02;4.85;;;;;;;13.86;73.79;98509.06;4974051;28;20050;-76
2023/11/01 04:41:09;;;;;;;12.65;4.60;;;;;;;13.85;73.62;98504.75;4973682;28;20050;-77
2023/11/01 04:43:36;;;;;;;9.00;4.72;;;;;;;13.86;73.71;98503.78;4974270;28;20082;-77
2023/11/01 04:46:05;;;;;;;9.15;4.60;;;;;;;13.86;73.78;98498.50;4973646;28;20543;-76
2023/11/01 04:48:31;;;;;;;7.45;4.13;;;;;;;13.86;73.76;98493.19;4974215;28;20137;-76
2023/11/01 04:50:59;;;;;;;8.85;4.55;;;;;;;13.86;73.89;98498.50;4973586;28;20062;-76
2023/11/01 04:53:27;;;;;;;9.38;4.78;;;;;;;13.87;73.58;98489.56;4973753;28;20675;-76
2023/11/01 04:55:54;;;;;;;7.50;4.05;;;;;;;13.87;73.81;98494.88;4973547;28;20050;-77
2023/11/01 04:58:22;;;;;;;10.90;4.50;;;;;;;13.87;73.64;98492.22;4972603;28;20410;-77
2023/11/01 05:00:49;;;;;;;7.07;4.22;;;;;;;13.87;73.80;98494.88;4972032;28;20054;-77
2023/11/01 05:03:16;;;;;;;12.43;4.72;;;;;;;13.86;73.68;98490.56;4973590;28;20423;-77
2023/11/01 05:05:44;;;;;;;11.75;4.20;;;;;;;13.87;73.60;98486.13;4973660;28;20043;-76
2023/11/01 05:08:10;;;;;;;7.35;3.67;;;;;;;13.87;73.57;98486.94;4972134;28;20054;-77
2023/11/01 05:10:37;;;;;;;10.75;4.22;;;;;;;13.87;73.64;98491.41;4972926;28;20050;-77
2023/11/01 05:13:05;;;;;;;11.52;4.28;;;;;;;13.87;73.55;98481.63;4973159;28;20051;-77
2023/11/01 05:15:36;;;;;;;7.35;4.30;;;;;;;13.84;73.73;98479.28;4973623;28;20064;-79
2023/11/01 05:18:03;;;;;;;10.20;4.90;;;;;;;13.85;73.52;98478.31;4973328;28;20411;-77
2023/11/01 05:20:30;;;;;;;9.27;4.45;;;;;;;13.84;73.55;98474.00;4971846;28;20134;-77
2023/11/01 05:22:57;;;;;;;10.05;4.85;;;;;;;13.84;73.57;98465.22;4973059;28;20059;-78
2023/11/01 05:25:25;;;;;;;7.20;3.90;;;;;;;13.84;73.76;98462.59;4973238;28;20121;-77
2023/11/01 05:27:55;;;;;;;11.27;4.63;;;;;;;13.83;73.71;98459.09;4972911;28;20105;-79
2023/11/01 05:30:22;;;;;;;8.93;3.85;;;;;;;13.85;73.66;98456.31;4972694;28;20492;-76
2023/11/01 05:32:48;;;;;;;6.63;3.75;;;;;;;13.85;73.56;98453.66;4972830;28;20138;-77
2023/11/01 05:35:15;;;;;;;5.75;3.45;;;;;;;13.84;73.80;98444.91;4971806;28;20739;-76
2023/11/01 05:37:43;;;;;;;6.90;4.20;;;;;;;13.84;73.64;98447.56;4971734;28;20054;-76
2023/11/01 05:40:13;;;;;;;7.53;3.30;;;;;;;13.85;73.65;98446.56;4972726;28;20058;-78
2023/11/01 05:42:41;;;;;;;5.68;2.90;;;;;;;13.85;73.41;98440.44;4971673;28;20054;-79
2023/11/01 05:45:08;;;;;;;8.25;3.05;;;;;;;13.85;73.63;98437.78;4972976;28;20070;-78
2023/11/01 05:47:35;;;;;;;6.57;3.08;;;;;;;13.84;73.66;98442.25;4972718;28;20141;-77
2023/11/01 05:50:06;;;;;;;6.30;3.25;;;;;;;13.84;73.62;98450.19;4972519;28;20047;-76
2023/11/01 05:52:35;;;;;;;8.32;3.33;;;;;;;13.85;73.72;98441.28;4971409;28;20054;-78
2023/11/01 05:55:01;;;;;;;5.30;2.50;;;;;;;13.85;73.67;98438.63;4971400;28;20065;-77
2023/11/01 05:57:50;;;;;;;3.90;2.53;;;;;;;13.83;73.66;98445.88;4972589;28;20129;-77
2023/11/01 06:00:19;;;;;;;;;;;;;;;13.84;73.54;98444.91;4972722;28;20055;-76
2023/11/01 06:02:46;;;;;;;4.78;2.13;;;;;;;13.89;73.21;98440.03;4972607;28;19925;-76
2023/11/01 06:05:15;;;;;;;4.55;2.13;;;;;;;13.86;73.21;98435.00;4971150;28;20073;-77
2023/11/01 06:07:42;;;;;;;5.05;2.60;;;;;;;13.84;73.50;98439.63;4971295;28;20372;-77
2023/11/01 06:10:10;;;;;;;7.68;2.70;;;;;;;13.84;73.63;98433.47;4972185;28;20056;-77
2023/11/01 06:12:37;;;;;;;6.28;2.30;;;;;;;13.85;73.81;98440.44;4972473;28;20061;-77
2023/11/01 06:15:04;;;;;;;3.90;2.38;;;;;;;13.82;73.81;98425.69;4972456;28;20046;-77
2023/11/01 06:17:31;;;;;;;3.20;2.05;;;;;;;13.82;73.89;98425.69;4972428;28;20420;-76
2023/11/01 06:19:57;;;;;;;5.57;1.90;;;;;;;13.83;73.78;98427.34;4971951;28;20265;-76
2023/11/01 06:22:24;;;;;;;3.92;2.00;;;;;;;13.83;73.70;98426.53;4972358;28;20125;-76
2023/11/01 06:24:51;;;;;;;2.55;1.85;;;;;;;13.83;73.86;98430.00;4971007;28;20058;-79
2023/11/01 06:27:17;;;;;;;2.28;1.75;;;;;;;13.84;73.78;98429.03;4972026;28;20047;-77
2023/11/01 06:29:44;;;;;;;1.50;1.40;;;;;;;13.84;73.93;98422.91;4971922;28;20133;-77
2023/11/01 06:32:11;;;;;;;3.10;1.55;;;;;;;13.85;74.03;98419.28;4972297;28;20660;-77
2023/11/01 06:34:38;;;;;;;1.52;1.30;;;;;;;13.85;74.04;98420.13;4972408;28;20101;-77
2023/11/01 06:37:05;;;;;;;4.50;1.50;;;;;;;13.86;74.00;98419.13;4976561;28;20086;-76
2023/11/01 06:39:32;;;;;;;1.30;1.20;;;;;;;13.87;73.81;98418.16;4978189;28;20101;-76
2023/11/01 06:41:59;;;;;;;2.55;1.40;;;;;;;13.88;73.92;98417.22;4978581;28;20047;-77
2023/11/01 06:44:26;;;;;;;1.23;1.10;;;;;;;13.89;73.87;98410.09;4978493;28;20062;-76
2023/11/01 06:46:52;;;;;;;1.52;0.98;;;;;;;13.89;73.85;98412.72;4978140;28;20089;-78
2023/11/01 06:49:19;;;;;;;2.00;1.10;;;;;;;13.89;73.96;98410.09;4976885;28;20105;-76
2023/11/01 06:51:46;;;;;;;2.05;1.25;;;;;;;13.89;73.99;98413.56;4978437;28;20055;-77
2023/11/01 06:54:13;;;;;;;1.55;1.05;;;;;;;13.90;74.07;98407.31;4978444;28;20078;-76
2023/11/01 06:56:46;;;;;;;1.73;1.30;;;;;;;13.88;74.23;98405.78;4978327;28;20495;-77
2023/11/01 06:59:13;;;;;;;2.88;1.17;;;;;;;13.90;73.96;98404.66;4977968;28;20101;-78
2023/11/01 07:01:41;;;;;;;2.35;1.10;;;;;;;13.91;74.17;98408.16;4978379;28;20113;-76
2023/11/01 07:04:08;;;;;;;1.67;0.95;;;;;;;13.90;74.11;98412.59;4977163;28;20057;-76
2023/11/01 07:06:35;;;;;;;2.38;1.00;;;;;;;13.91;74.23;98408.16;4978169;28;20050;-76
2023/11/01 07:09:01;;;;;;;1.20;1.10;;;;;;;13.92;74.16;98415.94;4978249;28;20059;-79
2023/11/01 07:11:28;;;;;;;1.60;1.05;;;;;;;13.93;74.23;98408.81;4977919;28;20051;-77
2023/11/01 07:13:55;;;;;;;2.20;1.17;;;;;;;13.93;74.03;98409.66;4976937;28;20057;-76
2023/11/01 07:16:22;;;;;;;1.20;1.10;;;;;;;13.94;74.13;98411.34;4978314;28;20385;-77
2023/11/01 07:18:48;;;;;;;1.80;1.50;;;;;;;13.94;74.07;98418.41;4978548;28;20051;-77
2023/11/01 07:21:15;;;;;;;1.70;1.17;;;;;;;13.93;74.21;98404.38;4976658;28;20058;-76
2023/11/01 07:23:41;;;;;;;1.92;1.30;;;;;;;13.93;74.26;98406.19;4976769;28;20555;-77
2023/11/01 07:26:08;;;;;;;1.50;1.17;;;;;;;13.91;74.48;98414.25;4977981;28;20062;-78
2023/11/01 07:28:35;;;;;;;1.80;1.42;;;;;;;13.93;74.27;98411.47;4977997;28;20047;-76
2023/11/01 07:31:02;;;;;;;1.60;1.50;;;;;;;13.93;74.51;98404.38;4977925;28;20097;-76
2023/11/01 07:33:29;;;;;;;1.88;1.52;;;;;;;13.93;74.56;98401.72;4976717;28;20146;-77
2023/11/01 07:35:55;;;;;;;1.83;1.30;;;;;;;13.94;74.43;98391.97;4977987;28;20499;-76
2023/11/01 07:38:22;;;;;;;1.55;1.45;;;;;;;13.94;74.41;98390.16;4978041;28;20058;-76
2023/11/01 07:40:49;;;;;;;1.83;1.70;;;;;;;13.94;74.59;98400.75;4976532;28;20051;-78
2023/11/01 07:43:18;;;;;;;1.73;1.63;;;;;;;13.94;74.77;98395.47;4977844;28;20062;-77
2023/11/01 07:45:44;;;;;;;2.28;1.80;;;;;;;13.95;74.87;98404.25;4977786;28;20624;-77
2023/11/01 07:48:12;;;;;;;2.33;2.13;;;;;;;13.96;74.78;98394.47;4973750;28;20538;-77
2023/11/01 07:50:40;;;;;;;2.72;2.35;;;;;;;13.96;75.07;98397.97;4973411;28;20129;-77
2023/11/01 07:53:07;;;;;;;2.78;2.28;;;;;;;13.97;75.08;98404.09;4973539;28;20529;-77
2023/11/01 07:55:33;;;;;;;2.75;2.55;;;;;;;13.98;74.95;98400.47;4974784;28;20154;-78
2023/11/01 07:58:00;;;;;;;4.32;3.20;;;;;;;13.98;75.16;98401.28;4974521;28;20562;-78
2023/11/01 08:00:27;;;;;;;4.60;2.97;;;;;;;14.00;75.28;98407.28;4974577;28;20058;-77
2023/11/01 08:02:53;;;;;;;3.35;3.05;;;;;;;14.01;75.31;98405.47;4973335;28;20046;-77
2023/11/01 08:05:21;;;;;;;3.58;2.88;;;;;;;14.03;75.46;98398.22;4974644;28;20051;-77
2023/11/01 08:07:49;;;;;;;2.97;2.78;;;;;;;14.04;75.80;98392.78;4973021;28;20058;-77
2023/11/01 08:10:16;;;;;;;3.42;3.03;;;;;;;14.06;75.37;98396.13;4974202;28;20407;-76
2023/11/01 08:12:42;;;;;;;3.50;3.20;;;;;;;14.10;75.47;98398.47;4973302;28;20117;-77
2023/11/01 08:15:09;;;;;;;3.50;3.20;;;;;;;14.10;75.60;98395.84;4974497;28;20137;-77
2023/11/01 08:17:36;;;;;;;3.95;3.55;;;;;;;14.13;75.67;98398.19;4974463;28;20117;-77
2023/11/01 08:20:03;;;;;;;3.75;3.33;;;;;;;14.14;75.77;98403.34;4971065;28;20090;-77
2023/11/01 08:22:30;;;;;;;3.75;3.35;;;;;;;14.17;75.94;98394.28;4973985;28;20057;-77
2023/11/01 08:24:57;;;;;;;3.63;3.33;;;;;;;14.19;75.83;98395.81;4973999;28;20145;-77
2023/11/01 08:27:24;;;;;;;3.55;3.25;;;;;;;14.22;75.79;98397.34;4972879;28;20109;-77
2023/11/01 08:29:50;;;;;;;4.30;3.90;;;;;;;14.24;75.86;98400.66;4973862;28;20105;-77
2023/11/01 08:32:17;;;;;;;5.13;3.88;;;;;;;14.26;75.93;98406.66;4973738;28;20057;-76
2023/11/01 08:34:43;;;;;;;5.45;4.50;;;;;;;14.27;75.70;98399.53;4973879;28;20495;-78
2023/11/01 08:37:10;;;;;;;5.80;4.15;;;;;;;14.29;75.75;98400.22;4972589;28;20543;-76
2023/11/01 08:39:36;;;;;;;5.18;4.50;;;;;;;14.28;75.92;98402.03;4973546;28;20106;-77
2023/11/01 08:42:03;;;;;;;5.93;4.65;;;;;;;14.30;75.79;98400.09;4974013;28;20694;-77
2023/11/01 08:44:30;;;;;;;5.50;4.85;;;;;;;14.31;75.82;98403.56;4973582;28;20078;-76
2023/11/01 08:47:04;;;;;;;6.82;4.97;;;;;;;14.32;76.60;98402.59;4973460;28;20101;-77
2023/11/01 08:49:31;;;;;;;8.35;5.22;;;;;;;14.35;76.08;98407.56;4973565;28;20054;-76
2023/11/01 08:51:58;;;;;;;9.40;6.03;;;;;;;14.37;76.26;98399.50;4973448;28;20050;-77
2023/11/01 08:54:24;;;;;;;12.63;5.65;;;;;;;14.39;75.99;98403.66;4972693;28;20046;-76
2023/11/01 08:56:51;;;;;;;10.05;5.80;;;;;;;14.41;76.31;98399.06;4973786;28;20051;-76
2023/11/01 08:59:18;;;;;;;12.73;5.55;;;;;;;14.42;76.52;98405.19;4971927;28;20054;-77
2023/11/01 09:01:44;;;;;;;9.07;5.43;;;;;;;14.44;76.36;98404.06;4973406;28;20051;-76
2023/11/01 09:04:13;;;;;;;13.73;5.80;;;;;;;14.48;76.33;98406.41;4972216;28;20478;-77
2023/11/01 09:06:40;;;;;;;10.82;5.55;;;;;;;14.49;76.47;98400.97;4973728;28;20046;-79
2023/11/01 09:09:06;;;;;;;9.93;5.43;;;;;;;14.52;76.38;98405.16;4972191;28;20207;-76
2023/11/01 09:11:33;;;;;;;11.77;5.38;;;;;;;14.53;76.38;98402.34;4973122;28;20554;-77
2023/11/01 09:14:00;;;;;;;13.55;5.63;;;;;;;14.55;76.31;98404.84;4973474;28;20046;-76
2023/11/01 09:16:26;;;;;;;8.13;5.10;;;;;;;14.57;76.37;98402.88;4971945;28;20084;-77
2023/11/01 09:18:53;;;;;;;11.90;5.38;;;;;;;14.60;76.39;98410.53;4973180;28;20354;-76
2023/11/01 09:21:19;;;;;;;5.65;4.20;;;;;;;14.62;76.44;98403.31;4972815;28;20483;-77
2023/11/01 09:23:46;;;;;;;8.27;4.45;;;;;;;14.64;76.36;98398.69;4973247;28;20050;-78
2023/11/01 09:26:15;;;;;;;12.45;4.47;;;;;;;14.68;76.48;98405.34;4973109;28;20113;-76
2023/11/01 09:28:42;;;;;;;9.95;3.55;;;;;;;14.70;76.33;98395.44;4973151;28;20124;-77
2023/11/01 09:31:08;;;;;;;8.40;3.78;;;;;;;14.73;76.43;98397.78;4972859;28;20054;-77
2023/11/01 09:33:35;;;;;;;9.60;3.25;;;;;;;14.77;76.36;98397.53;4972838;28;20054;-76
2023/11/01 09:36:02;;;;;;;7.20;3.17;;;;;;;14.81;76.48;98404.19;4972946;28;20063;-77
2023/11/01 09:38:29;;;;;;;9.48;2.78;;;;;;;14.83;76.37;98391.63;4972943;28;20058;-77
2023/11/01 09:40:57;;;;;;;7.65;2.80;;;;;;;14.86;76.30;98391.34;4971371;28;20051;-77
2023/11/01 09:43:28;;;;;;;12.30;2.97;;;;;;;14.90;76.48;98402.47;4972917;28;20113;-77
2023/11/01 09:45:54;;;;;;;9.77;2.42;;;;;;;14.92;76.27;98396.03;4972609;28;20050;-77
2023/11/01 09:48:22;;;;;;;10.88;3.17;;;;;;;14.95;76.19;98394.91;4972591;28;20462;-76
2023/11/01 09:50:51;;;;;;;6.95;2.33;;;;;;;14.98;76.24;98400.75;4972404;28;20051;-77
2023/11/01 09:53:18;;;;;;;7.10;2.38;;;;;;;15.01;76.17;98396.97;4972686;28;20054;-76
2023/11/01 09:55:45;;;;;;;6.97;2.17;;;;;;;15.03;76.13;98402.94;4971463;28;20070;-79
2023/11/01 09:58:17;;;;;;;6.88;2.40;;;;;;;15.05;76.14;98406.28;4972632;28;20050;-77
2023/11/01 10:00:45;;;;;;;12.52;2.50;;;;;;;15.11;76.03;98396.91;4971106;28;20062;-76
2023/11/01 10:03:12;;;;;;;7.82;2.05;;;;;;;15.14;76.14;98403.72;4972355;28;20053;-76
2023/11/01 10:05:39;;;;;;;10.98;2.58;;;;;;;15.16;76.12;98391.13;4972328;28;20134;-77
2023/11/01 10:08:06;;;;;;;10.93;2.28;;;;;;;15.19;76.08;98389.03;4971137;28;20042;-78
2023/11/01 10:10:35;;;;;;;13.63;2.50;;;;;;;15.22;76.23;98391.34;4971652;28;20110;-77
2023/11/01 10:13:01;;;;;;;8.40;2.40;;;;;;;15.29;76.30;98385.47;4972082;28;20061;-77
2023/11/01 10:15:28;;;;;;;10.73;1.92;;;;;;;15.34;76.21;98378.72;4972447;28;20051;-78
2023/11/01 10:17:55;;;;;;;11.27;1.80;;;;;;;15.39;76.30;98380.91;4972334;28;20059;-76
2023/11/01 10:20:29;;;;;;;10.70;2.28;;;;;;;15.42;76.17;98379.75;4971975;28;20051;-77
2023/11/01 10:22:56;;;;;;;5.55;1.63;;;;;;;15.51;75.98;98373.53;4972330;28;20047;-76
2023/11/01 10:25:24;;;;;;;6.53;1.48;;;;;;;15.55;76.01;98380.19;4972105;28;20057;-77
2023/11/01 10:27:52;;;;;;;9.15;1.92;;;;;;;15.61;76.10;98362.84;4972244;28;20106;-76
2023/11/01 10:30:18;;;;;;;6.82;2.10;;;;;;;15.67;75.81;98366.69;4971817;28;20061;-76
2023/11/01 10:32:59;;;;;;;8.70;1.98;;;;;;;15.69;75.45;98370.84;4971839;28;20061;-78
2023/11/01 10:35:26;;;;;;;10.75;2.38;;;;;;;15.79;75.51;98369.91;4970906;28;20487;-77
2023/11/01 10:37:58;;;;;;;6.93;2.20;;;;;;;15.81;75.02;98367.97;4971919;28;20117;-78
2023/11/01 10:40:29;;;;;;;6.72;1.30;;;;;;;15.87;75.07;98377.94;4971805;28;20063;-77
2023/11/01 10:43:01;;;;;;;12.15;1.63;;;;;;;15.89;74.77;98362.72;4972039;28;20130;-77
2023/11/01 10:45:28;;;;;;;14.85;2.70;;;;;;;15.91;74.71;98360.72;4971990;28;20493;-79
2023/11/01 10:47:55;;;;;;;10.75;2.08;;;;;;;15.94;74.78;98363.09;4972072;28;20097;-76
2023/11/01 10:50:22;;;;;;;7.35;1.90;;;;;;;15.95;74.65;98361.25;4971659;28;20047;-78
2023/11/01 10:52:49;;;;;;;10.00;2.40;;;;;;;15.97;74.45;98354.00;4971758;28;20054;-77
2023/11/01 10:55:21;;;;;;;8.77;2.30;;;;;;;15.96;74.17;98347.03;4970542;28;20086;-76
2023/11/01 10:57:49;;;;;;;8.07;2.00;;;;;;;16.00;74.34;98337.75;4970706;28;20384;-76
2023/11/01 11:00:24;;;;;;;5.00;1.35;;;;;;;16.02;74.49;98341.91;4971797;28;20047;-77
2023/11/01 11:03:15;;;;;;;11.85;2.05;;;;;;;16.06;74.19;98333.63;4970772;28;20051;-76
2023/11/01 11:05:43;;;;;;;11.15;2.05;;;;;;;16.15;74.79;98328.19;4971987;28;20090;-78
2023/11/01 11:08:10;;;;;;;8.70;1.52;;;;;;;16.21;74.96;98316.13;4971848;28;20113;-77
2023/11/01 11:10:42;;;;;;;10.68;2.30;;;;;;;16.32;75.66;98308.84;4971442;28;20093;-77
2023/11/01 11:13:13;;;;;;;10.20;2.03;;;;;;;16.45;75.61;98309.22;4971952;28;20050;-76
2023/11/01 11:15:46;;;;;;;6.00;1.65;;;;;;;16.55;73.87;98311.75;4971983;28;20063;-77
2023/11/01 11:18:16;;;;;;;6.60;1.60;;;;;;;16.66;73.69;98302.63;4971848;28;20054;-76
2023/11/01 11:20:42;;;;;;;7.85;1.88;;;;;;;16.71;73.10;98304.81;4971722;28;20059;-76
2023/11/01 11:23:13;;;;;;;7.85;1.63;;;;;;;16.73;72.73;98319.59;4973806;28;20058;-76
2023/11/01 11:25:48;;;;;;;8.52;1.88;;;;;;;16.74;72.40;98297.34;4974117;28;20113;-77
2023/11/01 11:28:18;;;;;;;6.88;1.85;;;;;;;16.71;71.60;98292.34;4974113;28;20106;-76